Time;durP1;ratioP1;P1;durP2;ratioP2;P2;SDS_P1;SDS_P2;PMS_P1;PMS_P2;Temp;Humidity;BMP_temperature;BMP_pressure;BME280_temperature;BME280_humidity;BME280_pressure;Samples;Min_cycle;Max_cycle;Signal;HPM_P1;HPM_P2
2022/07/06 00:01:35;;;;;;;5.40;5.20;;;;;;;;;;5088536;28;20048;-62
2022/07/06 00:04:03;;;;;;;5.15;4.95;;;;;;;;;;5095633;28;20024;-60
2022/07/06 00:06:28;;;;;;;5.25;5.05;;;;;;;;;;5095400;28;20028;-62
2022/07/06 00:08:54;;;;;;;5.30;5.10;;;;;;;;;;5094689;28;20531;-61
2022/07/06 00:11:19;;;;;;;5.50;5.30;;;;;;;;;;5095639;28;20372;-60
2022/07/06 00:13:45;;;;;;;5.40;5.20;;;;;;;;;;5095312;28;20016;-61
2022/07/06 00:16:10;;;;;;;5.40;5.20;;;;;;;;;;5092303;28;20099;-61
2022/07/06 00:18:35;;;;;;;5.20;5.00;;;;;;;;;;5096951;28;20400;-60
2022/07/06 00:21:01;;;;;;;5.38;5.18;;;;;;;;;;5095419;28;20020;-60
2022/07/06 00:23:26;;;;;;;5.40;5.20;;;;;;;;;;5094846;28;20394;-60
2022/07/06 00:25:51;;;;;;;5.22;5.03;;;;;;;;;;5093835;28;20034;-61
2022/07/06 00:28:17;;;;;;;5.40;5.20;;;;;;;;;;5094894;28;20027;-60
2022/07/06 00:30:42;;;;;;;5.25;5.05;;;;;;;;;;5095078;28;20031;-60
2022/07/06 00:33:07;;;;;;;5.20;5.00;;;;;;;;;;5095108;28;20410;-61
2022/07/06 00:35:33;;;;;;;5.47;5.28;;;;;;;;;;5090645;28;20391;-61
2022/07/06 00:37:58;;;;;;;5.40;5.20;;;;;;;;;;5094687;28;20396;-60
2022/07/06 00:40:23;;;;;;;5.40;5.20;;;;;;;;;;5094698;28;20053;-60
2022/07/06 00:42:49;;;;;;;5.38;5.18;;;;;;;;;;5093940;28;20056;-61
2022/07/06 00:45:16;;;;;;;5.40;5.20;;;;;;;;;;5094719;28;20099;-61
2022/07/06 00:47:42;;;;;;;5.32;5.13;;;;;;;;;;5094398;28;20092;-60
2022/07/06 00:50:13;;;;;;;5.50;5.30;;;;;;;;;;5092872;28;20032;-61
2022/07/06 00:52:40;;;;;;;5.43;5.22;;;;;;;;;;5094811;28;20020;-61
2022/07/06 00:55:05;;;;;;;5.40;5.20;;;;;;;;;;5102972;28;20086;-61
2022/07/06 00:57:30;;;;;;;5.38;5.18;;;;;;;;;;5105296;28;20023;-61
2022/07/06 00:59:56;;;;;;;5.40;5.20;;;;;;;;;;5096194;27;20023;-61
2022/07/06 01:02:22;;;;;;;5.30;5.10;;;;;;;;;;5094241;28;20024;-61
2022/07/06 01:04:48;;;;;;;5.38;5.18;;;;;;;;;;5093404;28;20107;-61
2022/07/06 01:07:13;;;;;;;5.40;5.20;;;;;;;;;;5093682;28;20256;-61
2022/07/06 01:09:38;;;;;;;5.30;5.10;;;;;;;;;;5092292;28;20024;-60
2022/07/06 01:12:04;;;;;;;5.30;5.10;;;;;;;;;;5094008;28;20027;-61
2022/07/06 01:14:30;;;;;;;5.50;5.30;;;;;;;;;;5093944;28;20016;-60
2022/07/06 01:16:55;;;;;;;5.40;5.20;;;;;;;;;;5092745;28;20020;-60
2022/07/06 01:19:21;;;;;;;5.50;5.30;;;;;;;;;;5093873;28;20069;-61
2022/07/06 01:21:47;;;;;;;5.35;5.15;;;;;;;;;;5092937;28;20046;-61
2022/07/06 01:24:13;;;;;;;5.50;5.30;;;;;;;;;;5094180;28;20020;-60
2022/07/06 01:26:38;;;;;;;5.35;5.15;;;;;;;;;;5093558;28;20028;-60
2022/07/06 01:29:03;;;;;;;5.38;5.18;;;;;;;;;;5093893;28;20385;-60
2022/07/06 01:31:29;;;;;;;5.20;5.00;;;;;;;;;;5093472;28;20516;-60
2022/07/06 01:33:55;;;;;;;5.20;5.00;;;;;;;;;;5092614;28;20016;-62
2022/07/06 01:36:20;;;;;;;5.20;5.00;;;;;;;;;;5093762;28;20028;-62
2022/07/06 01:38:50;;;;;;;5.60;5.40;;;;;;;;;;5092411;28;20105;-61
2022/07/06 01:41:15;;;;;;;5.38;5.18;;;;;;;;;;5092626;28;20024;-61
2022/07/06 01:43:41;;;;;;;5.30;5.10;;;;;;;;;;5095845;28;20026;-61
2022/07/06 01:46:06;;;;;;;5.30;5.10;;;;;;;;;;5093446;28;20151;-60
2022/07/06 01:48:31;;;;;;;5.30;5.10;;;;;;;;;;5092997;28;20502;-61
2022/07/06 01:50:57;;;;;;;5.50;5.30;;;;;;;;;;5092353;28;20020;-60
2022/07/06 01:53:22;;;;;;;5.30;5.10;;;;;;;;;;5093366;28;20023;-61
2022/07/06 01:55:47;;;;;;;5.03;4.82;;;;;;;;;;5093352;28;20016;-61
2022/07/06 01:58:13;;;;;;;5.15;4.95;;;;;;;;;;5078620;28;20059;-60
2022/07/06 02:00:38;;;;;;;5.38;5.18;;;;;;;;;;5095036;28;20582;-60
2022/07/06 02:03:03;;;;;;;5.30;5.10;;;;;;;;;;5093047;28;20111;-61
2022/07/06 02:05:28;;;;;;;5.40;5.20;;;;;;;;;;5093006;28;20036;-61
2022/07/06 02:07:54;;;;;;;5.32;5.13;;;;;;;;;;5091531;28;20051;-62
2022/07/06 02:10:19;;;;;;;5.40;5.20;;;;;;;;;;5092718;28;20032;-61
2022/07/06 02:12:44;;;;;;;5.20;5.00;;;;;;;;;;5092899;28;20027;-61
2022/07/06 02:15:10;;;;;;;5.30;5.10;;;;;;;;;;5091017;28;20016;-61
2022/07/06 02:17:35;;;;;;;5.40;5.20;;;;;;;;;;5092395;28;20053;-62
2022/07/06 02:20:01;;;;;;;5.38;5.18;;;;;;;;;;5092318;28;20024;-61
2022/07/06 02:22:26;;;;;;;5.20;5.00;;;;;;;;;;5091940;28;20085;-62
2022/07/06 02:24:51;;;;;;;5.35;5.15;;;;;;;;;;5090679;28;20047;-62
2022/07/06 02:27:16;;;;;;;5.30;5.10;;;;;;;;;;5094414;28;20046;-61
2022/07/06 02:29:42;;;;;;;5.30;5.10;;;;;;;;;;5092465;28;20502;-61
2022/07/06 02:32:07;;;;;;;5.38;5.18;;;;;;;;;;5091132;28;20019;-62
2022/07/06 02:34:33;;;;;;;5.47;5.28;;;;;;;;;;5091869;28;20016;-62
2022/07/06 02:37:00;;;;;;;5.43;5.22;;;;;;;;;;5092422;28;20407;-61
2022/07/06 02:39:25;;;;;;;5.18;4.97;;;;;;;;;;5092631;28;20024;-61
2022/07/06 02:41:51;;;;;;;5.22;5.03;;;;;;;;;;5091341;28;20494;-60
2022/07/06 02:44:16;;;;;;;5.38;5.18;;;;;;;;;;5092432;28;20028;-62
2022/07/06 02:46:41;;;;;;;5.28;5.07;;;;;;;;;;5092266;28;20056;-61
2022/07/06 02:49:06;;;;;;;5.38;5.18;;;;;;;;;;5091412;28;20364;-61
2022/07/06 02:51:32;;;;;;;5.35;5.15;;;;;;;;;;5090323;28;20059;-60
2022/07/06 02:53:57;;;;;;;5.35;5.15;;;;;;;;;;5092380;28;20115;-60
2022/07/06 02:56:22;;;;;;;5.38;5.18;;;;;;;;;;5092280;28;20031;-61
2022/07/06 02:58:48;;;;;;;5.43;5.22;;;;;;;;;;5091089;28;20035;-61
2022/07/06 03:01:13;;;;;;;5.30;5.10;;;;;;;;;;5091819;28;20016;-61
2022/07/06 03:03:38;;;;;;;5.50;5.30;;;;;;;;;;5092258;28;20028;-61
2022/07/06 03:06:04;;;;;;;5.50;5.30;;;;;;;;;;5090219;28;20032;-62
2022/07/06 03:08:29;;;;;;;5.50;5.30;;;;;;;;;;5092343;28;20545;-61
2022/07/06 03:10:54;;;;;;;5.40;5.20;;;;;;;;;;5091841;28;20008;-61
2022/07/06 03:13:19;;;;;;;5.45;5.25;;;;;;;;;;5091981;28;20012;-61
2022/07/06 03:15:45;;;;;;;5.60;5.40;;;;;;;;;;5090725;28;20055;-61
2022/07/06 03:18:10;;;;;;;5.70;5.50;;;;;;;;;;5091778;28;20008;-61
2022/07/06 03:20:35;;;;;;;5.68;5.47;;;;;;;;;;5092006;28;20463;-61
2022/07/06 03:23:00;;;;;;;5.60;5.40;;;;;;;;;;5091466;28;20052;-62
2022/07/06 03:25:26;;;;;;;5.80;5.60;;;;;;;;;;5091334;28;20538;-61
2022/07/06 03:27:51;;;;;;;5.70;5.50;;;;;;;;;;5092119;28;20050;-60
2022/07/06 03:30:17;;;;;;;5.72;5.53;;;;;;;;;;5095938;28;20498;-61
2022/07/06 03:32:42;;;;;;;5.80;5.60;;;;;;;;;;5094827;28;20035;-61
2022/07/06 03:35:07;;;;;;;5.80;5.60;;;;;;;;;;5095789;28;20024;-61
2022/07/06 03:37:33;;;;;;;5.90;5.70;;;;;;;;;;5095486;28;20384;-61
2022/07/06 03:39:58;;;;;;;5.78;5.57;;;;;;;;;;5094097;28;20020;-61
2022/07/06 03:42:23;;;;;;;5.87;5.67;;;;;;;;;;5096453;28;20031;-61
2022/07/06 03:44:49;;;;;;;6.00;5.80;;;;;;;;;;5094262;28;20300;-61
2022/07/06 03:47:14;;;;;;;5.75;5.55;;;;;;;;;;5091145;28;20058;-61
2022/07/06 03:49:39;;;;;;;5.80;5.60;;;;;;;;;;5083940;28;20024;-61
2022/07/06 03:52:05;;;;;;;5.78;5.57;;;;;;;;;;5090269;28;20077;-61
2022/07/06 03:54:30;;;;;;;5.70;5.50;;;;;;;;;;5104462;28;20055;-61
2022/07/06 03:56:55;;;;;;;5.88;5.68;;;;;;;;;;5091266;28;20062;-61
2022/07/06 03:59:21;;;;;;;5.93;5.73;;;;;;;;;;5089962;28;20472;-61
2022/07/06 04:01:46;;;;;;;5.93;5.73;;;;;;;;;;5093221;28;20335;-61
2022/07/06 04:04:11;;;;;;;6.10;5.90;;;;;;;;;;5098216;28;20635;-61
2022/07/06 04:06:38;;;;;;;6.20;5.97;;;;;;;;;;5095375;28;20023;-61
2022/07/06 04:09:03;;;;;;;6.10;5.90;;;;;;;;;;5095056;28;20031;-61
2022/07/06 04:11:29;;;;;;;6.17;5.97;;;;;;;;;;5094467;28;20023;-62
2022/07/06 04:13:54;;;;;;;6.00;5.80;;;;;;;;;;5091009;28;20268;-61
2022/07/06 04:16:20;;;;;;;6.05;5.85;;;;;;;;;;5090579;28;20072;-61
2022/07/06 04:18:45;;;;;;;6.07;5.88;;;;;;;;;;5105594;28;20099;-61
2022/07/06 04:21:10;;;;;;;5.93;5.72;;;;;;;;;;5090912;28;20376;-61
2022/07/06 04:23:36;;;;;;;6.15;5.95;;;;;;;;;;5096584;28;20039;-60
2022/07/06 04:26:01;;;;;;;6.20;6.00;;;;;;;;;;5094867;28;20058;-61
2022/07/06 04:28:27;;;;;;;6.15;5.95;;;;;;;;;;5093466;28;20402;-61
2022/07/06 04:30:52;;;;;;;6.40;6.10;;;;;;;;;;5081474;28;20016;-61
2022/07/06 04:33:17;;;;;;;6.40;6.10;;;;;;;;;;5094241;28;20264;-62
2022/07/06 04:35:42;;;;;;;6.60;6.30;;;;;;;;;;5094473;28;20643;-62
2022/07/06 04:38:08;;;;;;;6.43;6.13;;;;;;;;;;5094399;28;20728;-61
2022/07/06 04:40:33;;;;;;;6.32;6.05;;;;;;;;;;5093433;28;20294;-61
2022/07/06 04:42:59;;;;;;;6.35;6.05;;;;;;;;;;5091768;28;20081;-62
2022/07/06 04:45:24;;;;;;;6.32;6.05;;;;;;;;;;5094357;28;20059;-62
2022/07/06 04:47:50;;;;;;;6.65;6.35;;;;;;;;;;5094023;28;20051;-61
2022/07/06 04:50:15;;;;;;;6.07;5.88;;;;;;;;;;5094969;28;20411;-62
2022/07/06 04:52:40;;;;;;;6.20;6.00;;;;;;;;;;5092868;28;20051;-61
2022/07/06 04:55:08;;;;;;;5.97;5.77;;;;;;;;;;5092982;28;20012;-61
2022/07/06 04:57:33;;;;;;;6.40;6.10;;;;;;;;;;5093368;28;20375;-61
2022/07/06 04:59:58;;;;;;;6.60;6.30;;;;;;;;;;5091403;28;20458;-62
2022/07/06 05:02:24;;;;;;;6.27;6.00;;;;;;;;;;5092046;28;20042;-62
2022/07/06 05:04:49;;;;;;;6.60;6.30;;;;;;;;;;5093262;28;20352;-63
2022/07/06 05:07:14;;;;;;;6.57;6.28;;;;;;;;;;5092705;28;20047;-62
2022/07/06 05:09:40;;;;;;;6.60;6.30;;;;;;;;;;5093798;28;20020;-62
2022/07/06 05:12:06;;;;;;;6.15;5.95;;;;;;;;;;5092724;28;20048;-62
2022/07/06 05:14:31;;;;;;;6.10;5.90;;;;;;;;;;5093002;28;20024;-61
2022/07/06 05:16:56;;;;;;;6.13;5.93;;;;;;;;;;5092658;28;20068;-63
2022/07/06 05:19:21;;;;;;;6.30;6.00;;;;;;;;;;5101042;28;20043;-62
2022/07/06 05:21:47;;;;;;;6.47;6.18;;;;;;;;;;5093748;28;20399;-61
2022/07/06 05:24:12;;;;;;;6.47;6.17;;;;;;;;;;5092940;28;20496;-63
2022/07/06 05:26:37;;;;;;;6.17;5.97;;;;;;;;;;5080360;28;20291;-62
2022/07/06 05:29:03;;;;;;;6.60;6.30;;;;;;;;;;5087446;28;20027;-61
2022/07/06 05:31:28;;;;;;;6.20;6.00;;;;;;;;;;5086744;28;20743;-62
2022/07/06 05:33:54;;;;;;;6.70;6.40;;;;;;;;;;5088711;28;20025;-61
2022/07/06 05:36:19;;;;;;;6.63;6.32;;;;;;;;;;5107464;28;20015;-63
2022/07/06 05:38:44;;;;;;;6.50;6.20;;;;;;;;;;5099456;28;20486;-62
2022/07/06 05:41:09;;;;;;;6.80;6.50;;;;;;;;;;5088426;28;20023;-62
2022/07/06 05:43:36;;;;;;;6.80;6.50;;;;;;;;;;5085673;28;20541;-61
2022/07/06 05:46:01;;;;;;;6.80;6.50;;;;;;;;;;5087356;28;20040;-62
2022/07/06 05:51:10;;;;;;;6.50;6.20;;;;;;;;;;5094597;28;20042;-62
2022/07/06 05:53:35;;;;;;;6.75;6.45;;;;;;;;;;5097848;28;20398;-61
2022/07/06 05:56:01;;;;;;;6.77;6.47;;;;;;;;;;5093891;28;20055;-61
2022/07/06 05:58:26;;;;;;;6.60;6.30;;;;;;;;;;5093106;28;20050;-61
2022/07/06 06:00:51;;;;;;;6.83;6.53;;;;;;;;;;5090880;28;20032;-61
2022/07/06 06:03:17;;;;;;;6.80;6.50;;;;;;;;;;5085885;28;20032;-61
2022/07/06 06:05:42;;;;;;;6.80;6.50;;;;;;;;;;5097755;28;20265;-62
2022/07/06 06:08:08;;;;;;;6.78;6.47;;;;;;;;;;5081701;28;20077;-61
2022/07/06 06:10:33;;;;;;;6.78;6.47;;;;;;;;;;5100523;27;20062;-61
2022/07/06 06:12:59;;;;;;;6.90;6.60;;;;;;;;;;5088834;28;20070;-62
2022/07/06 06:15:24;;;;;;;7.13;6.83;;;;;;;;;;5094612;28;20044;-62
2022/07/06 06:17:49;;;;;;;7.00;6.70;;;;;;;;;;5087789;28;20028;-61
2022/07/06 06:20:15;;;;;;;7.20;6.90;;;;;;;;;;5090206;28;20307;-62
2022/07/06 06:22:46;;;;;;;7.10;6.80;;;;;;;;;;5088099;28;20030;-62
2022/07/06 06:25:12;;;;;;;6.85;6.55;;;;;;;;;;5088219;28;20053;-62
2022/07/06 06:27:37;;;;;;;6.70;6.40;;;;;;;;;;5098402;28;20031;-63
2022/07/06 06:30:03;;;;;;;6.80;6.50;;;;;;;;;;5097931;28;20031;-62
2022/07/06 06:32:29;;;;;;;6.75;6.45;;;;;;;;;;5091962;28;20024;-62
2022/07/06 06:34:54;;;;;;;7.00;6.70;;;;;;;;;;5087963;28;20048;-61
2022/07/06 06:37:19;;;;;;;7.10;6.80;;;;;;;;;;5089675;28;20264;-63
2022/07/06 06:39:44;;;;;;;6.70;6.40;;;;;;;;;;5090604;28;20507;-62
2022/07/06 06:42:10;;;;;;;6.77;6.47;;;;;;;;;;5091853;28;20024;-61
2022/07/06 06:44:35;;;;;;;6.77;6.47;;;;;;;;;;5090641;28;20047;-62
2022/07/06 06:47:00;;;;;;;6.70;6.40;;;;;;;;;;5090616;28;20032;-62
2022/07/06 06:49:26;;;;;;;6.57;6.27;;;;;;;;;;5091726;28;20024;-60
2022/07/06 06:51:51;;;;;;;6.70;6.40;;;;;;;;;;5091809;28;20013;-61
2022/07/06 06:54:16;;;;;;;6.30;6.00;;;;;;;;;;5092013;28;20020;-60
2022/07/06 06:56:42;;;;;;;6.13;5.93;;;;;;;;;;5090650;28;20035;-61
2022/07/06 06:59:07;;;;;;;6.53;6.23;;;;;;;;;;5091963;28;20253;-62
2022/07/06 07:01:32;;;;;;;6.40;6.10;;;;;;;;;;5080200;28;20040;-62
2022/07/06 07:03:58;;;;;;;6.40;6.10;;;;;;;;;;5089535;28;20475;-61
2022/07/06 07:06:23;;;;;;;6.60;6.30;;;;;;;;;;5091952;28;20024;-61
2022/07/06 07:08:49;;;;;;;6.38;6.10;;;;;;;;;;5091781;28;20038;-62
2022/07/06 07:11:14;;;;;;;6.50;6.20;;;;;;;;;;5092296;28;20074;-61
2022/07/06 07:13:39;;;;;;;6.27;6.07;;;;;;;;;;5090684;28;20020;-62
2022/07/06 07:16:05;;;;;;;6.38;6.07;;;;;;;;;;5092064;28;20244;-63
2022/07/06 07:18:30;;;;;;;6.80;6.50;;;;;;;;;;5091484;28;20499;-60
2022/07/06 07:20:55;;;;;;;6.70;6.40;;;;;;;;;;5091519;28;20107;-62
2022/07/06 07:23:21;;;;;;;6.67;6.37;;;;;;;;;;5091481;28;20263;-62
2022/07/06 07:25:46;;;;;;;6.20;6.00;;;;;;;;;;5091718;28;20046;-62
2022/07/06 07:28:11;;;;;;;6.63;6.33;;;;;;;;;;5091904;28;20051;-61
2022/07/06 07:30:37;;;;;;;6.33;6.10;;;;;;;;;;5090773;28;20503;-61
2022/07/06 07:33:02;;;;;;;6.50;6.20;;;;;;;;;;5090157;28;20539;-62
2022/07/06 07:35:27;;;;;;;6.50;6.20;;;;;;;;;;5091950;28;20024;-63
2022/07/06 07:37:53;;;;;;;6.35;6.07;;;;;;;;;;5091645;28;20716;-62
2022/07/06 07:40:18;;;;;;;6.23;6.00;;;;;;;;;;5091498;28;20458;-62
2022/07/06 07:42:44;;;;;;;6.47;6.18;;;;;;;;;;5091811;28;20024;-61
2022/07/06 07:45:10;;;;;;;6.13;5.93;;;;;;;;;;5091441;28;20131;-62
2022/07/06 07:47:36;;;;;;;6.07;5.88;;;;;;;;;;5085765;28;20075;-61
2022/07/06 07:50:01;;;;;;;5.83;5.63;;;;;;;;;;5091379;28;20434;-61
2022/07/06 07:52:26;;;;;;;6.07;5.87;;;;;;;;;;5091781;28;20026;-61
2022/07/06 07:54:52;;;;;;;5.72;5.53;;;;;;;;;;5091434;28;20018;-60
2022/07/06 07:57:17;;;;;;;6.00;5.80;;;;;;;;;;5091592;28;20028;-61
2022/07/06 07:59:42;;;;;;;6.00;5.80;;;;;;;;;;5084765;28;20028;-61
2022/07/06 08:02:08;;;;;;;5.73;5.53;;;;;;;;;;5091222;28;20028;-61
2022/07/06 08:04:33;;;;;;;5.90;5.70;;;;;;;;;;5090790;28;20249;-61
2022/07/06 08:06:59;;;;;;;6.10;5.90;;;;;;;;;;5095478;28;20051;-61
2022/07/06 08:09:24;;;;;;;5.82;5.63;;;;;;;;;;5090792;28;20024;-60
2022/07/06 08:11:49;;;;;;;6.00;5.80;;;;;;;;;;5091243;28;20062;-59
2022/07/06 08:14:16;;;;;;;6.00;5.80;;;;;;;;;;5082268;28;20472;-61
2022/07/06 08:16:42;;;;;;;5.90;5.70;;;;;;;;;;5094967;28;20051;-61
2022/07/06 08:19:07;;;;;;;5.80;5.60;;;;;;;;;;5095049;28;20478;-60
2022/07/06 08:21:32;;;;;;;5.68;5.47;;;;;;;;;;5093872;28;20028;-60
2022/07/06 08:24:00;;;;;;;5.90;5.70;;;;;;;;;;5093460;28;20458;-61
2022/07/06 08:26:25;;;;;;;5.78;5.57;;;;;;;;;;5095127;28;20047;-60
2022/07/06 08:28:51;;;;;;;5.75;5.55;;;;;;;;;;5093144;28;20510;-60
2022/07/06 08:31:16;;;;;;;5.75;5.55;;;;;;;;;;5108621;28;20020;-60
2022/07/06 08:33:42;;;;;;;5.78;5.57;;;;;;;;;;5094965;28;20016;-61
2022/07/06 08:36:07;;;;;;;5.90;5.70;;;;;;;;;;5094855;28;20043;-60
2022/07/06 08:38:32;;;;;;;5.80;5.60;;;;;;;;;;5085964;28;20617;-60
2022/07/06 08:40:58;;;;;;;5.83;5.63;;;;;;;;;;5089877;28;20728;-61
2022/07/06 08:43:23;;;;;;;5.90;5.70;;;;;;;;;;5094315;28;20241;-61
2022/07/06 08:45:49;;;;;;;5.68;5.47;;;;;;;;;;5094346;28;20027;-60
2022/07/06 08:48:15;;;;;;;5.88;5.68;;;;;;;;;;5094874;28;20052;-62
2022/07/06 08:50:40;;;;;;;5.80;5.60;;;;;;;;;;5088425;28;20486;-61
2022/07/06 08:53:06;;;;;;;5.70;5.50;;;;;;;;;;5094252;28;20383;-60
2022/07/06 08:55:32;;;;;;;5.88;5.68;;;;;;;;;;5092876;28;20031;-60
2022/07/06 08:57:58;;;;;;;5.55;5.35;;;;;;;;;;5099726;28;20016;-62
2022/07/06 09:00:24;;;;;;;5.82;5.63;;;;;;;;;;5094344;28;20468;-60
2022/07/06 09:02:50;;;;;;;5.78;5.57;;;;;;;;;;5098105;28;20038;-60
2022/07/06 09:05:16;;;;;;;5.63;5.43;;;;;;;;;;5094598;28;20062;-61
2022/07/06 09:07:43;;;;;;;5.75;5.55;;;;;;;;;;5094013;28;20020;-61
2022/07/06 09:10:08;;;;;;;5.80;5.60;;;;;;;;;;5093715;28;20671;-61
2022/07/06 09:12:34;;;;;;;5.70;5.50;;;;;;;;;;5092889;28;20070;-60
2022/07/06 09:15:00;;;;;;;5.60;5.40;;;;;;;;;;5094103;28;20043;-60
2022/07/06 09:17:28;;;;;;;5.68;5.47;;;;;;;;;;5094096;28;20387;-60
2022/07/06 09:19:54;;;;;;;5.68;5.47;;;;;;;;;;5093892;28;20062;-61
2022/07/06 09:22:31;;;;;;;5.60;5.40;;;;;;;;;;5093931;28;20047;-61
2022/07/06 09:25:10;;;;;;;5.63;5.43;;;;;;;;;;5092565;28;20386;-60
2022/07/06 09:27:39;;;;;;;5.60;5.40;;;;;;;;;;5093017;28;20020;-61
2022/07/06 09:30:05;;;;;;;5.45;5.25;;;;;;;;;;5092623;28;20409;-61
2022/07/06 09:32:37;;;;;;;5.50;5.30;;;;;;;;;;5093978;28;20020;-60
2022/07/06 09:35:03;;;;;;;5.50;5.30;;;;;;;;;;5093831;28;20016;-60
2022/07/06 09:37:29;;;;;;;5.75;5.55;;;;;;;;;;5093738;28;20305;-60
2022/07/06 09:39:54;;;;;;;5.80;5.60;;;;;;;;;;5093548;28;20132;-60
2022/07/06 09:42:24;;;;;;;5.70;5.50;;;;;;;;;;5093479;28;20023;-60
2022/07/06 09:44:49;;;;;;;5.80;5.60;;;;;;;;;;5093407;28;20024;-60
2022/07/06 09:47:15;;;;;;;5.60;5.40;;;;;;;;;;5091756;28;20139;-60
2022/07/06 09:49:40;;;;;;;5.80;5.60;;;;;;;;;;5092948;28;20264;-60
2022/07/06 09:52:07;;;;;;;5.80;5.60;;;;;;;;;;5093015;28;20012;-60
2022/07/06 09:54:33;;;;;;;5.70;5.50;;;;;;;;;;5093225;28;20016;-61
2022/07/06 09:56:58;;;;;;;5.50;5.30;;;;;;;;;;5093178;28;20039;-61
2022/07/06 09:59:31;;;;;;;5.60;5.40;;;;;;;;;;5097428;28;20059;-61
2022/07/06 10:02:00;;;;;;;5.90;5.70;;;;;;;;;;5093321;28;20361;-60
2022/07/06 10:04:26;;;;;;;5.60;5.40;;;;;;;;;;5092248;28;20101;-60
2022/07/06 10:06:53;;;;;;;5.65;5.45;;;;;;;;;;5093214;28;20483;-60
2022/07/06 10:09:19;;;;;;;5.70;5.50;;;;;;;;;;5093091;28;20012;-60
2022/07/06 10:11:47;;;;;;;5.70;5.50;;;;;;;;;;5093037;28;20487;-61
2022/07/06 10:14:14;;;;;;;5.68;5.47;;;;;;;;;;5092763;28;20027;-61
2022/07/06 10:16:40;;;;;;;5.57;5.38;;;;;;;;;;5092764;28;20016;-61
2022/07/06 10:19:06;;;;;;;5.70;5.50;;;;;;;;;;5092637;28;20024;-61
2022/07/06 10:21:32;;;;;;;5.68;5.47;;;;;;;;;;5085740;28;20028;-61
2022/07/06 10:23:59;;;;;;;5.50;5.30;;;;;;;;;;5092723;28;20050;-61
2022/07/06 10:26:25;;;;;;;5.60;5.40;;;;;;;;;;5092309;28;20732;-61
2022/07/06 10:28:51;;;;;;;5.60;5.40;;;;;;;;;;5092514;28;20060;-61
2022/07/06 10:31:17;;;;;;;5.53;5.32;;;;;;;;;;5092370;28;20110;-61
2022/07/06 10:33:43;;;;;;;5.70;5.50;;;;;;;;;;5092449;28;20024;-60
2022/07/06 10:36:09;;;;;;;5.38;5.18;;;;;;;;;;5092160;28;20099;-60
2022/07/06 10:38:35;;;;;;;5.50;5.30;;;;;;;;;;5091630;28;20059;-60
2022/07/06 10:41:09;;;;;;;5.60;5.40;;;;;;;;;;5092291;28;20388;-61
2022/07/06 10:43:35;;;;;;;5.50;5.30;;;;;;;;;;5092205;28;20024;-61
2022/07/06 10:46:21;;;;;;;5.70;5.50;;;;;;;;;;5091911;28;20048;-61
2022/07/06 10:48:47;;;;;;;5.50;5.30;;;;;;;;;;5091559;28;20399;-60
2022/07/06 10:51:22;;;;;;;5.57;5.38;;;;;;;;;;5092543;28;20039;-60
2022/07/06 10:53:54;;;;;;;5.60;5.40;;;;;;;;;;5091540;28;20047;-61
2022/07/06 10:56:30;;;;;;;5.50;5.30;;;;;;;;;;5093923;28;20111;-61
2022/07/06 10:58:56;;;;;;;5.55;5.35;;;;;;;;;;5087309;28;20050;-61
2022/07/06 11:01:23;;;;;;;5.40;5.20;;;;;;;;;;5092478;28;20020;-61
2022/07/06 11:03:48;;;;;;;5.60;5.40;;;;;;;;;;5092037;28;20046;-61
2022/07/06 11:06:18;;;;;;;5.50;5.30;;;;;;;;;;5091729;28;20012;-60
2022/07/06 11:08:46;;;;;;;5.45;5.25;;;;;;;;;;5091539;28;20020;-61
2022/07/06 11:11:12;;;;;;;5.55;5.35;;;;;;;;;;5086216;28;20020;-62
2022/07/06 11:13:47;;;;;;;5.60;5.40;;;;;;;;;;5086721;28;20460;-61
2022/07/06 11:16:13;;;;;;;5.50;5.30;;;;;;;;;;5090185;28;20020;-61
2022/07/06 11:18:39;;;;;;;5.50;5.30;;;;;;;;;;5091846;28;20042;-61
2022/07/06 11:21:21;;;;;;;5.45;5.25;;;;;;;;;;5091707;28;20027;-60
2022/07/06 11:23:48;;;;;;;5.70;5.50;;;;;;;;;;5091670;28;20016;-61
2022/07/06 11:26:13;;;;;;;5.70;5.50;;;;;;;;;;5091822;28;20063;-59
2022/07/06 11:28:39;;;;;;;5.45;5.25;;;;;;;;;;5090731;28;20033;-60
2022/07/06 11:31:04;;;;;;;5.60;5.40;;;;;;;;;;5091981;28;20050;-60
2022/07/06 11:33:30;;;;;;;5.50;5.30;;;;;;;;;;5091831;28;20487;-61
2022/07/06 11:36:14;;;;;;;5.38;5.18;;;;;;;;;;5091682;28;20013;-60
2022/07/06 11:38:40;;;;;;;5.82;5.63;;;;;;;;;;5092053;28;20024;-61
2022/07/06 11:41:05;;;;;;;5.57;5.38;;;;;;;;;;5090087;28;20360;-59
2022/07/06 11:43:31;;;;;;;5.60;5.40;;;;;;;;;;5091593;28;20020;-60
2022/07/06 11:45:56;;;;;;;5.72;5.53;;;;;;;;;;5090380;28;20150;-61
2022/07/06 11:48:22;;;;;;;5.73;5.53;;;;;;;;;;5091396;28;20028;-60
2022/07/06 11:50:59;;;;;;;5.60;5.40;;;;;;;;;;5094584;28;20288;-61
2022/07/06 11:53:24;;;;;;;5.60;5.40;;;;;;;;;;5098997;28;20103;-61
2022/07/06 11:55:50;;;;;;;5.70;5.50;;;;;;;;;;5095189;28;20389;-61
2022/07/06 11:58:16;;;;;;;5.53;5.32;;;;;;;;;;5095302;28;20133;-60
2022/07/06 12:00:42;;;;;;;5.70;5.50;;;;;;;;;;5095315;28;20483;-61
2022/07/06 12:03:07;;;;;;;5.72;5.53;;;;;;;;;;5082307;28;20032;-60
2022/07/06 12:05:32;;;;;;;5.70;5.50;;;;;;;;;;5095200;28;20038;-61
2022/07/06 12:08:05;;;;;;;5.60;5.40;;;;;;;;;;5094812;28;20020;-61
2022/07/06 12:10:35;;;;;;;5.50;5.30;;;;;;;;;;5094989;28;20276;-60
2022/07/06 12:13:04;;;;;;;5.53;5.32;;;;;;;;;;5089101;28;20016;-61
2022/07/06 12:15:29;;;;;;;5.50;5.30;;;;;;;;;;5095257;28;20049;-60
2022/07/06 12:17:55;;;;;;;5.45;5.25;;;;;;;;;;5095351;28;20450;-61
2022/07/06 12:20:20;;;;;;;5.45;5.25;;;;;;;;;;5094167;28;20047;-60
2022/07/06 12:22:46;;;;;;;5.40;5.20;;;;;;;;;;5094922;28;20422;-61
2022/07/06 12:25:11;;;;;;;5.43;5.22;;;;;;;;;;5094882;28;20020;-60
2022/07/06 12:27:36;;;;;;;5.57;5.38;;;;;;;;;;5094813;28;20142;-60
2022/07/06 12:30:08;;;;;;;5.60;5.40;;;;;;;;;;5094568;28;20031;-60
2022/07/06 12:32:36;;;;;;;5.70;5.50;;;;;;;;;;5095248;28;20578;-60
2022/07/06 12:35:08;;;;;;;5.50;5.30;;;;;;;;;;5095009;28;20099;-60
2022/07/06 12:37:33;;;;;;;5.57;5.38;;;;;;;;;;5094038;28;20074;-61
2022/07/06 12:39:59;;;;;;;5.50;5.30;;;;;;;;;;5094611;28;20421;-61
2022/07/06 12:42:24;;;;;;;5.50;5.30;;;;;;;;;;5094763;28;20032;-60
2022/07/06 12:44:50;;;;;;;5.60;5.40;;;;;;;;;;5094274;28;20024;-60
2022/07/06 12:47:23;;;;;;;5.60;5.40;;;;;;;;;;5094116;28;20184;-61
2022/07/06 12:49:49;;;;;;;5.47;5.28;;;;;;;;;;5097591;28;20421;-60
2022/07/06 12:52:15;;;;;;;5.57;5.38;;;;;;;;;;5094415;28;20066;-61
2022/07/06 12:54:40;;;;;;;5.60;5.40;;;;;;;;;;5092918;28;20020;-61
2022/07/06 12:57:06;;;;;;;5.60;5.40;;;;;;;;;;5094344;28;20020;-61
2022/07/06 12:59:32;;;;;;;5.47;5.28;;;;;;;;;;5093994;28;20031;-61
2022/07/06 13:01:57;;;;;;;5.60;5.40;;;;;;;;;;5093191;28;20023;-61
2022/07/06 13:04:24;;;;;;;5.50;5.30;;;;;;;;;;5093851;28;20384;-62
2022/07/06 13:06:49;;;;;;;5.55;5.35;;;;;;;;;;5094097;28;20376;-61
2022/07/06 13:09:16;;;;;;;5.53;5.32;;;;;;;;;;5088520;28;20031;-61
2022/07/06 13:11:41;;;;;;;5.57;5.38;;;;;;;;;;5092994;28;20027;-60
2022/07/06 13:14:06;;;;;;;5.60;5.40;;;;;;;;;;5093963;28;20022;-61
2022/07/06 13:16:34;;;;;;;5.43;5.23;;;;;;;;;;5093912;28;20024;-61
2022/07/06 13:18:59;;;;;;;5.60;5.40;;;;;;;;;;5093947;28;20237;-61
2022/07/06 13:21:25;;;;;;;5.60;5.40;;;;;;;;;;5092341;28;20098;-61
2022/07/06 13:23:50;;;;;;;5.50;5.30;;;;;;;;;;5093653;28;20047;-61
2022/07/06 13:26:15;;;;;;;5.70;5.50;;;;;;;;;;5093408;28;20398;-61
2022/07/06 13:28:41;;;;;;;5.40;5.20;;;;;;;;;;5092574;28;20031;-61
2022/07/06 13:31:06;;;;;;;5.57;5.38;;;;;;;;;;5093392;28;20027;-60
2022/07/06 13:33:32;;;;;;;5.50;5.30;;;;;;;;;;5093585;28;20016;-60
2022/07/06 13:35:57;;;;;;;5.50;5.30;;;;;;;;;;5093209;28;20023;-61
2022/07/06 13:38:22;;;;;;;5.50;5.30;;;;;;;;;;5093154;28;20024;-61
2022/07/06 13:40:47;;;;;;;5.70;5.50;;;;;;;;;;5093122;28;20054;-60
2022/07/06 13:43:13;;;;;;;5.68;5.47;;;;;;;;;;5093317;28;20028;-60
2022/07/06 13:45:38;;;;;;;5.50;5.30;;;;;;;;;;5089439;28;20098;-61
2022/07/06 13:48:03;;;;;;;5.47;5.28;;;;;;;;;;5093305;28;20046;-62
2022/07/06 13:50:32;;;;;;;5.50;5.30;;;;;;;;;;5093107;28;20024;-61
2022/07/06 13:52:57;;;;;;;5.70;5.50;;;;;;;;;;5093341;28;20093;-61
2022/07/06 13:55:22;;;;;;;5.40;5.20;;;;;;;;;;5091993;28;20048;-61
2022/07/06 13:57:48;;;;;;;5.40;5.20;;;;;;;;;;5092937;28;20027;-60
2022/07/06 14:00:14;;;;;;;5.45;5.25;;;;;;;;;;5093093;28;20016;-62
2022/07/06 14:02:39;;;;;;;5.60;5.40;;;;;;;;;;5079417;28;20029;-60
2022/07/06 14:05:05;;;;;;;5.40;5.20;;;;;;;;;;5089495;28;20025;-62
2022/07/06 14:07:30;;;;;;;5.40;5.20;;;;;;;;;;5082337;28;20012;-61
2022/07/06 14:09:55;;;;;;;5.30;5.10;;;;;;;;;;5092803;28;20085;-61
2022/07/06 14:12:23;;;;;;;5.60;5.40;;;;;;;;;;5092505;28;20736;-61
2022/07/06 14:14:49;;;;;;;5.50;5.30;;;;;;;;;;5093112;28;20020;-61
2022/07/06 14:17:14;;;;;;;5.30;5.10;;;;;;;;;;5092769;28;20027;-62
2022/07/06 14:19:39;;;;;;;5.47;5.28;;;;;;;;;;5091568;28;20024;-60
2022/07/06 14:22:04;;;;;;;5.32;5.13;;;;;;;;;;5092627;28;20012;-60
2022/07/06 14:24:30;;;;;;;5.20;5.00;;;;;;;;;;5092444;28;20376;-60
2022/07/06 14:26:55;;;;;;;5.40;5.20;;;;;;;;;;5086378;28;20024;-60
2022/07/06 14:29:20;;;;;;;5.40;5.20;;;;;;;;;;5091948;28;20111;-60
2022/07/06 14:31:47;;;;;;;5.32;5.13;;;;;;;;;;5092563;28;20028;-61
2022/07/06 14:34:12;;;;;;;5.30;5.10;;;;;;;;;;5092151;28;20024;-59
2022/07/06 14:36:38;;;;;;;5.32;5.13;;;;;;;;;;5091417;28;20050;-60
2022/07/06 14:39:04;;;;;;;5.32;5.13;;;;;;;;;;5092195;28;20012;-61